map of ZHI home
ZHI - Airport
Location
City:  Grenchen, Solothurn, Switzerland
ICAO:LSZG
IATA:ZHI

Details
Type:Airport (Flugplatz, Airfield)
Use:Public/Civil
Latitude:4710'54"N (47.181628)
Longitude:725'02"E (7.417189)
Datum:WGS 1984
Elevation:1411 ft (430 m)
Variation:2.16E (WMM2015 magnetic declination)
0.12 annual change
Runways:3
Longest:3281 × 75 ft (1000 × 23 m), paved

Time
Time Zone:UTC+1 (DST+2)
Local Time:

Weather
METAR:LSZG 160350Z AUTO 02003KT 9999 NCD 07/06 Q1018

Related Locations
Nearby:
Farthest:CHT: 12134 mi / 19529 km
Waitangi [Tuuta], CIT, NZ

Find:

   beyond  
but within

Other Information
Maps:
NOTAMs:
Links:
Sources:

  
  • flag of Switzerland
  • flag of Solothurn
  

Sectional Chart

Flight Planning
at skyvector.com

Satellite Image

Google Maps Satellite view

 

Copyright © 2004-2018 Karl L. Swartz. All rights reserved.
The Great Circle Mapper name and logo are trademarks of the Great Circle Mapper.
All other trademarks mentioned herein belong to their respective owners.
Please see credits for attibutions and further copyright information.

  Follow gcmap on Facebook Follow gcmap on Twitter Follow gcmap on Google+ GCmap on LinkedIn

hCard Microformat

Geo Microformat